createdAt,value
2023-03-12T00:04:04.539Z,40.3
2023-03-12T00:09:04.856Z,40.3
2023-03-12T00:14:05.213Z,40.3
2023-03-12T00:19:05.590Z,40.2
2023-03-12T00:24:06.229Z,40.1
2023-03-12T00:29:06.527Z,40
2023-03-12T00:34:07.085Z,39.9
2023-03-12T00:39:07.498Z,39.9
2023-03-12T00:44:00.514Z,39.8
2023-03-12T00:49:00.918Z,39.7
2023-03-12T00:54:01.196Z,39.4
2023-03-12T00:59:01.593Z,39.6
2023-03-12T01:04:02.013Z,39.4
2023-03-12T01:09:02.420Z,39.4
2023-03-12T01:14:02.999Z,39.4
2023-03-12T01:19:03.561Z,39.2
2023-03-12T01:24:04.044Z,39.3
2023-03-12T01:29:04.035Z,39.2
2023-03-12T01:34:04.290Z,39.2
2023-03-12T01:39:07.580Z,39.1
2023-03-12T01:44:07.540Z,39
2023-03-12T01:49:08.186Z,39
2023-03-12T01:54:08.768Z,38.8
2023-03-12T01:59:10.001Z,39
2023-03-12T02:04:10.400Z,39.1
2023-03-12T02:09:10.785Z,39.2
2023-03-12T02:14:11.444Z,39.1
2023-03-12T02:19:11.901Z,39.2
2023-03-12T02:24:15.106Z,39.1
2023-03-12T02:29:15.003Z,39.2
2023-03-12T02:34:15.449Z,39.2
2023-03-12T02:39:15.905Z,39.2
2023-03-12T02:44:16.535Z,39.2
2023-03-12T02:49:16.995Z,39.3
2023-03-12T02:54:17.481Z,39
2023-03-12T02:59:17.940Z,39
2023-03-12T03:04:18.585Z,39
2023-03-12T03:09:18.905Z,38.9
2023-03-12T03:14:19.589Z,38.9
2023-03-12T03:19:20.092Z,38.7
2023-03-12T03:24:20.439Z,38.7
2023-03-12T03:29:20.832Z,38.5
2023-03-12T03:34:21.203Z,38.5
2023-03-12T03:39:21.774Z,38.4
2023-03-12T03:44:22.409Z,38.3
2023-03-12T03:49:25.608Z,38.2
2023-03-12T03:54:28.157Z,38.2
2023-03-12T03:59:28.238Z,38.4
2023-03-12T04:04:28.722Z,38.4
2023-03-12T04:09:29.354Z,38.5
2023-03-12T04:14:30.092Z,38.4
2023-03-12T04:19:30.600Z,38.3
2023-03-12T04:24:31.142Z,38.5
2023-03-12T04:29:31.606Z,38.2
2023-03-12T04:34:31.982Z,38.4
2023-03-12T04:39:32.468Z,38.4
2023-03-12T04:44:33.438Z,38.3
2023-03-12T04:49:34.141Z,38.3
2023-03-12T04:54:34.691Z,38.3
2023-03-12T04:59:38.154Z,38.1
2023-03-12T05:04:38.403Z,38
2023-03-12T05:09:38.917Z,38
2023-03-12T05:14:39.714Z,37.8
2023-03-12T05:19:40.342Z,37.8
2023-03-12T05:24:41.112Z,38.1
2023-03-12T05:29:41.643Z,38.2
2023-03-12T05:34:43.272Z,38
2023-03-12T05:39:46.380Z,38.3
2023-03-12T05:44:46.591Z,38.2
2023-03-12T05:49:47.064Z,38.2
2023-03-12T05:54:47.543Z,38.5
2023-03-12T05:59:48.176Z,38.3
2023-03-12T06:04:49.177Z,38.6
2023-03-12T06:09:49.773Z,38.7
2023-03-12T06:14:50.476Z,38.4
2023-03-12T06:19:51.253Z,38.2
2023-03-12T06:24:51.944Z,37.9
2023-03-12T06:29:52.480Z,37.9
2023-03-12T06:34:55.682Z,37.7
2023-03-12T06:39:55.922Z,37.8
2023-03-12T06:44:56.547Z,37.8
2023-03-12T06:49:57.179Z,37.9
2023-03-12T06:54:58.176Z,37.8
2023-03-12T06:59:58.471Z,37.8
2023-03-12T07:04:58.894Z,38.1
2023-03-12T07:09:59.327Z,38.1
2023-03-12T07:14:59.789Z,37.8
2023-03-12T07:20:00.240Z,37.9
2023-03-12T07:25:01.035Z,37.8
2023-03-12T07:30:01.493Z,38
2023-03-12T07:35:01.870Z,37.9
2023-03-12T07:40:02.572Z,38.1
2023-03-12T07:45:03.121Z,37.7
2023-03-12T07:50:06.391Z,38
2023-03-12T07:55:06.297Z,37.7
2023-03-12T08:00:09.704Z,38.2
2023-03-12T08:05:09.863Z,38
2023-03-12T08:10:10.216Z,38.4
2023-03-12T08:15:11.088Z,38.2
2023-03-12T08:20:11.565Z,38.4
2023-03-12T08:25:27.010Z,38.5
2023-03-12T08:30:25.399Z,38.4
2023-03-12T08:35:26.114Z,38
2023-03-12T08:40:26.347Z,38.2
2023-03-12T08:45:29.905Z,38.2
2023-03-12T08:50:29.949Z,38.1
2023-03-12T08:55:30.678Z,37.8
2023-03-12T09:00:31.269Z,37.9
2023-03-12T09:05:31.989Z,37.9
2023-03-12T09:10:35.172Z,37.9
2023-03-12T09:15:35.347Z,37.5
2023-03-12T09:20:36.083Z,37.9
2023-03-12T09:25:36.723Z,37.7
2023-03-12T09:30:37.161Z,37.3
2023-03-12T09:35:37.518Z,37.2
2023-03-12T09:40:38.155Z,37.5
2023-03-12T09:45:38.845Z,37.3
2023-03-12T09:50:39.442Z,37.4
2023-03-12T09:55:39.838Z,37.3
2023-03-12T10:00:40.416Z,37.3
2023-03-12T10:05:41.076Z,37.4
2023-03-12T10:10:41.736Z,37.3
2023-03-12T10:15:42.605Z,37.3
2023-03-12T10:20:43.083Z,37.3
2023-03-12T10:25:43.757Z,37.6
2023-03-12T10:30:44.112Z,37.4
2023-03-12T10:35:44.663Z,37.3
2023-03-12T10:40:47.839Z,37.3
2023-03-12T10:45:47.967Z,37.3
2023-03-12T10:50:48.315Z,37.3
2023-03-12T10:55:48.972Z,37.3
2023-03-12T11:00:49.585Z,37.2
2023-03-12T11:05:50.178Z,37.3
2023-03-12T11:10:53.391Z,36.8
2023-03-12T11:15:53.444Z,36.8
2023-03-12T11:20:54.092Z,36.9
2023-03-12T11:25:57.679Z,36.8
2023-03-12T11:31:00.772Z,37
2023-03-12T11:36:03.663Z,37.1
2023-03-12T11:41:03.934Z,37
2023-03-12T11:46:04.519Z,37
2023-03-12T11:51:05.184Z,37.2
2023-03-12T11:56:05.678Z,37.2
2023-03-12T12:01:06.277Z,37.1
2023-03-12T12:06:07.089Z,37.2
2023-03-12T12:11:08.149Z,37.2
2023-03-12T12:16:08.706Z,36.9
2023-03-12T12:21:09.122Z,37.3
2023-03-12T12:26:09.728Z,36.6
2023-03-12T12:31:10.459Z,36.9
2023-03-12T12:36:11.238Z,36.7
2023-03-12T12:41:11.509Z,36.9
2023-03-12T12:46:14.783Z,36.4
2023-03-12T12:51:14.565Z,36.9
2023-03-12T12:56:15.548Z,36.9
2023-03-12T13:01:15.739Z,36.8
2023-03-12T13:06:19.096Z,36.7
2023-03-12T13:11:20.777Z,36.8
2023-03-12T13:16:20.078Z,36.7
2023-03-12T13:21:20.574Z,36.5
2023-03-12T13:26:23.960Z,36.3
2023-03-12T13:31:24.454Z,36.5
2023-03-12T13:36:25.006Z,36.2
2023-03-12T13:41:25.440Z,36.2
2023-03-12T13:46:28.841Z,36.7
2023-03-12T13:51:28.849Z,36.1
2023-03-12T13:56:29.375Z,36.4
2023-03-12T14:01:29.954Z,36.4
2023-03-12T14:06:30.573Z,36.4
2023-03-12T14:11:33.821Z,36.3
2023-03-12T14:16:33.897Z,36.4
2023-03-12T14:21:34.045Z,36
2023-03-12T14:26:34.735Z,36.4
2023-03-12T14:31:35.502Z,36.3
2023-03-12T14:36:35.756Z,36.5
2023-03-12T14:41:38.903Z,36.1
2023-03-12T14:46:38.982Z,36.2
2023-03-12T14:51:39.869Z,36.4
2023-03-12T14:56:41.965Z,36.4
2023-03-12T15:01:41.024Z,36.3
2023-03-12T15:06:41.572Z,36.3
2023-03-12T15:11:42.335Z,35.7
2023-03-12T15:16:42.835Z,36
2023-03-12T15:21:45.908Z,35.9
2023-03-12T15:26:45.998Z,35.7
2023-03-12T15:31:46.614Z,36.2
2023-03-12T15:36:47.091Z,36.3
2023-03-12T15:41:47.683Z,36.4
2023-03-12T15:46:48.659Z,36.2
2023-03-12T15:51:48.567Z,36.1
2023-03-12T15:56:49.039Z,36
2023-03-12T16:01:49.799Z,36.3
2023-03-12T16:06:50.577Z,36.1
2023-03-12T16:11:53.700Z,36
2023-03-12T16:16:56.363Z,36.1
2023-03-12T16:21:56.561Z,36.1
2023-03-12T16:26:56.887Z,35.7
2023-03-12T16:31:57.684Z,35.5
2023-03-12T16:36:58.073Z,36.2
2023-03-12T16:42:01.426Z,36.2
2023-03-12T16:47:03.992Z,35.9
2023-03-12T16:52:05.305Z,36.2
2023-03-12T16:57:04.756Z,36.1
2023-03-12T17:02:05.469Z,36.1
2023-03-12T17:07:06.077Z,36.1
2023-03-12T17:12:06.674Z,36.1
2023-03-12T17:17:07.238Z,36.2
2023-03-12T17:22:07.917Z,36.2
2023-03-12T17:27:11.246Z,36
2023-03-12T17:32:11.256Z,36.1
2023-03-12T17:37:11.763Z,36.1
2023-03-12T17:42:15.098Z,35.5
2023-03-12T17:47:15.126Z,36.1
2023-03-12T17:52:15.629Z,36
2023-03-12T17:57:18.895Z,36.1
2023-03-12T18:02:18.854Z,35.8
2023-03-12T18:07:19.391Z,36.1
2023-03-12T18:12:19.853Z,36
2023-03-12T18:17:20.198Z,35.8
2023-03-12T18:22:20.816Z,35.5
2023-03-12T18:27:21.237Z,36
2023-03-12T18:32:22.037Z,35.9
2023-03-12T18:37:25.156Z,36.1
2023-03-12T18:42:25.174Z,35.9
2023-03-12T18:47:25.620Z,35.9
2023-03-12T18:52:28.627Z,36.4
2023-03-12T18:57:28.534Z,36.7
2023-03-12T19:02:29.221Z,36.7
2023-03-12T19:07:29.519Z,36.6
2023-03-12T19:12:42.338Z,36.8
2023-03-12T19:17:35.968Z,36.6
2023-03-12T19:22:35.967Z,36.6
2023-03-12T19:27:36.571Z,36.7
2023-03-12T19:32:43.551Z,36.7
2023-03-12T19:37:37.801Z,36.9
2023-03-12T19:42:38.296Z,36.9
2023-03-12T19:47:40.624Z,37.1
2023-03-12T19:52:40.805Z,37
2023-03-12T19:57:41.276Z,37
2023-03-12T20:02:42.427Z,37.1
2023-03-12T20:07:45.435Z,37
2023-03-12T20:12:45.428Z,37.2
2023-03-12T20:17:45.954Z,37.1
2023-03-12T20:22:46.401Z,37.2
2023-03-12T20:27:47.136Z,37.2
2023-03-12T20:32:47.721Z,37.2
2023-03-12T20:37:47.969Z,37.2
2023-03-12T20:42:48.460Z,37.2
2023-03-12T20:47:49.196Z,37.1
2023-03-12T20:52:49.632Z,37.3
2023-03-12T20:57:52.999Z,37.1
2023-03-12T21:02:53.264Z,37.2
2023-03-12T21:07:53.759Z,37.2
2023-03-12T21:12:54.486Z,37.1
2023-03-12T21:17:55.094Z,37.2
2023-03-12T21:22:55.588Z,37.3
2023-03-12T21:27:56.132Z,37.2
2023-03-12T21:32:56.797Z,37.3
2023-03-12T21:37:57.364Z,37.2
2023-03-12T21:42:57.979Z,37.4
2023-03-12T21:47:58.451Z,37.3
2023-03-12T21:53:03.516Z,37.3
2023-03-12T21:58:01.882Z,37.3
2023-03-12T22:03:02.368Z,37.3
2023-03-12T22:08:02.872Z,37.4
2023-03-12T22:13:03.466Z,37.2
2023-03-12T22:18:06.859Z,37.3
2023-03-12T22:23:07.006Z,37.4
2023-03-12T22:28:07.604Z,37.3
2023-03-12T22:33:07.994Z,37.3
2023-03-12T22:38:08.509Z,37.3
2023-03-12T22:43:09.219Z,37.4
2023-03-12T22:48:09.836Z,37.4
2023-03-12T22:53:10.158Z,37.4
2023-03-12T22:58:10.756Z,37.4
2023-03-12T23:03:14.135Z,37.5
2023-03-12T23:08:14.006Z,37.5
2023-03-12T23:13:14.746Z,37.5
2023-03-12T23:18:15.181Z,37.5
2023-03-12T23:23:15.730Z,37.5
2023-03-12T23:28:16.292Z,37.6
2023-03-12T23:33:16.821Z,37.6
2023-03-12T23:38:17.443Z,37.6
2023-03-12T23:43:18.071Z,37.5
2023-03-12T23:48:18.472Z,37.6
2023-03-12T23:53:19.218Z,37.6
2023-03-12T23:58:19.754Z,37.6
